createdAt,value
2022-11-04T00:01:50.587Z,67.29
2022-11-04T00:04:19.970Z,66.44
2022-11-04T00:06:48.098Z,66.24
2022-11-04T00:09:30.653Z,65.59
2022-11-04T00:12:17.096Z,66.30
2022-11-04T00:14:44.492Z,67.37
2022-11-04T00:17:25.255Z,66.96
2022-11-04T00:20:21.479Z,66.58
2022-11-04T00:23:07.805Z,67.32
2022-11-04T00:26:07.751Z,67.46
2022-11-04T00:28:43.716Z,69.39
2022-11-04T00:31:29.502Z,69.82
2022-11-04T00:33:59.283Z,70.75
2022-11-04T00:36:26.918Z,70.85
2022-11-04T00:38:54.518Z,71.95
2022-11-04T00:41:28.327Z,71.38
2022-11-04T00:44:01.935Z,71.85
2022-11-04T00:46:31.773Z,71.89
2022-11-04T00:48:59.666Z,70.83
2022-11-04T00:51:27.143Z,70.69
2022-11-04T00:53:54.787Z,71.74
2022-11-04T00:56:22.096Z,70.09
2022-11-04T00:58:50.321Z,69.09
2022-11-04T01:01:19.524Z,68.90
2022-11-04T01:03:53.187Z,68.72
2022-11-04T01:06:22.895Z,68.03
2022-11-04T01:09:02.519Z,67.13
2022-11-04T01:11:31.399Z,66.18
2022-11-04T01:13:59.130Z,66.83
2022-11-04T01:18:55.427Z,63.69
2022-11-04T01:21:22.598Z,63.87
2022-11-04T01:23:49.798Z,62.47
2022-11-04T01:26:21.226Z,61.30
2022-11-04T01:28:49.475Z,62.41
2022-11-04T01:31:24.300Z,65.97
2022-11-04T01:33:53.739Z,61.98
2022-11-04T01:36:22.128Z,61.57
2022-11-04T01:38:50.411Z,61.36
2022-11-04T01:41:28.800Z,61.47
2022-11-04T01:44:24.230Z,62.54
2022-11-04T01:46:54.068Z,60.70
2022-11-04T01:49:39.166Z,59.55
2022-11-04T01:52:25.990Z,59.60
2022-11-04T01:54:57.606Z,59.84
2022-11-04T01:57:33.542Z,62.97
2022-11-04T02:00:06.317Z,63.16
2022-11-04T02:03:06.343Z,60.35
2022-11-04T02:05:34.307Z,61.43
2022-11-04T02:08:04.716Z,62.56
2022-11-04T02:10:33.366Z,64.49
2022-11-04T02:13:03.737Z,67.62
2022-11-04T02:15:51.979Z,69.84
2022-11-04T02:18:49.244Z,70.86
2022-11-04T02:21:38.032Z,70.45
2022-11-04T02:24:26.332Z,67.18
2022-11-04T02:27:37.038Z,66.81
2022-11-04T02:30:12.403Z,69.13
2022-11-04T02:32:50.380Z,68.59
2022-11-04T02:35:30.793Z,68.95
2022-11-04T02:38:04.057Z,68.47
2022-11-04T02:40:41.656Z,69.62
2022-11-04T02:43:50.293Z,75.45
2022-11-04T02:46:34.680Z,77.67
2022-11-04T02:49:40.555Z,76.02
2022-11-04T02:52:10.563Z,73.59
2022-11-04T02:54:54.957Z,70.90
2022-11-04T02:57:29.030Z,69.90
2022-11-04T03:00:08.729Z,69.40
2022-11-04T03:03:09.884Z,70.05
2022-11-04T03:05:42.470Z,71.58
2022-11-04T03:08:17.404Z,72.50
2022-11-04T03:10:52.790Z,73.42
2022-11-04T03:13:50.255Z,72.64
2022-11-04T03:16:23.900Z,72.52
2022-11-04T03:19:34.704Z,71.21
2022-11-04T03:22:03.567Z,71.71
2022-11-04T03:24:31.907Z,71.99
2022-11-04T03:27:16.562Z,71.27
2022-11-04T03:30:02.429Z,71.45
2022-11-04T03:32:54.629Z,72.24
2022-11-04T03:35:22.004Z,73.20
2022-11-04T03:37:50.224Z,72.96
2022-11-04T03:40:20.996Z,72.58
2022-11-04T03:42:58.767Z,73.34
2022-11-04T03:45:26.992Z,73.42
2022-11-04T03:47:56.104Z,74.76
2022-11-04T03:50:42.078Z,74.83
2022-11-04T03:53:12.448Z,78.43
2022-11-04T03:56:21.636Z,77.60
2022-11-04T03:59:04.697Z,77.41
2022-11-04T04:01:56.134Z,78.38
2022-11-04T04:05:18.846Z,80.12
2022-11-04T04:08:11.946Z,80.27
2022-11-04T04:11:15.758Z,79.13
2022-11-04T04:13:59.476Z,78.83
2022-11-04T04:17:00.529Z,77.79
2022-11-04T04:19:29.215Z,77.04
2022-11-04T04:22:05.156Z,77.58
2022-11-04T04:24:58.636Z,76.97
2022-11-04T04:27:33.672Z,76.89
2022-11-04T04:30:15.933Z,76.19
2022-11-04T04:32:57.890Z,76.78
2022-11-04T04:35:42.522Z,76.67
2022-11-04T04:38:44.461Z,76.34
2022-11-04T04:41:46.575Z,76.92
2022-11-04T04:44:46.629Z,76.31
2022-11-04T04:47:24.880Z,77.37
2022-11-04T04:50:01.120Z,78.60
2022-11-04T04:52:40.207Z,77.08
2022-11-04T04:55:08.805Z,77.76
2022-11-04T04:57:36.338Z,76.75
2022-11-04T05:00:06.706Z,76.78
2022-11-04T05:02:34.411Z,77.23
2022-11-04T05:05:01.886Z,79.34
2022-11-04T05:07:29.134Z,77.80
2022-11-04T05:09:56.572Z,77.51
2022-11-04T05:12:23.965Z,78.14
2022-11-04T05:14:51.149Z,79.54
2022-11-04T05:17:18.346Z,78.06
2022-11-04T05:19:45.651Z,77.84
2022-11-04T05:22:12.846Z,77.05
2022-11-04T05:24:40.028Z,77.34
2022-11-04T05:27:07.236Z,77.95
2022-11-04T05:29:34.498Z,79.64
2022-11-04T05:32:01.871Z,78.83
2022-11-04T05:34:29.261Z,80.35
2022-11-04T05:36:56.466Z,79.62
2022-11-04T05:39:23.689Z,81.51
2022-11-04T05:41:50.832Z,84.57
2022-11-04T05:44:18.055Z,81.87
2022-11-04T05:46:45.249Z,81.18
2022-11-04T05:49:12.570Z,86.17
2022-11-04T05:51:39.845Z,86.20
2022-11-04T05:54:07.055Z,86.73
2022-11-04T05:56:34.262Z,87.44
2022-11-04T05:59:01.600Z,90.37
2022-11-04T06:01:33.441Z,91.96
2022-11-04T06:04:02.090Z,88.81
2022-11-04T06:06:36.896Z,91.58
2022-11-04T06:09:04.448Z,84.59
2022-11-04T06:11:32.972Z,83.92
2022-11-04T06:14:00.710Z,82.43
2022-11-04T06:16:28.303Z,85.09
2022-11-04T06:18:56.867Z,80.16
2022-11-04T06:21:32.503Z,84.39
2022-11-04T06:24:00.884Z,84.84
2022-11-04T06:26:30.961Z,87.92
2022-11-04T06:28:58.505Z,88.71
2022-11-04T06:31:25.995Z,86.40
2022-11-04T06:33:53.323Z,83.54
2022-11-04T06:36:20.552Z,81.59
2022-11-04T06:38:47.793Z,81.43
2022-11-04T06:41:17.706Z,83.56
2022-11-04T06:43:45.521Z,81.37
2022-11-04T06:46:37.229Z,77.12
2022-11-04T06:49:06.934Z,73.95
2022-11-04T06:51:34.576Z,74.12
2022-11-04T06:54:02.067Z,76.04
2022-11-04T06:56:29.335Z,76.63
2022-11-04T06:58:56.893Z,72.35
2022-11-04T07:01:28.963Z,72.51
2022-11-04T07:03:59.702Z,72.07
2022-11-04T07:06:28.821Z,72.91
2022-11-04T07:09:00.918Z,74.67
2022-11-04T07:11:31.564Z,75.64
2022-11-04T07:13:59.067Z,79.71
2022-11-04T07:16:26.840Z,74.61
2022-11-04T07:18:57.056Z,77.13
2022-11-04T07:21:24.464Z,79.59
2022-11-04T07:23:51.731Z,78.61
2022-11-04T07:26:19.547Z,76.48
2022-11-04T07:28:46.731Z,76.78
2022-11-04T07:31:14.839Z,77.11
2022-11-04T07:33:42.372Z,77.74
2022-11-04T07:36:13.184Z,78.87
2022-11-04T07:38:40.619Z,77.74
2022-11-04T07:41:08.453Z,76.14
2022-11-04T07:43:35.843Z,76.17
2022-11-04T07:46:13.143Z,76.04
2022-11-04T07:48:40.525Z,73.97
2022-11-04T07:51:12.798Z,74.39
2022-11-04T07:53:40.380Z,78.44
2022-11-04T07:56:13.725Z,78.42
2022-11-04T07:58:41.826Z,81.61
2022-11-04T08:01:13.616Z,78.72
2022-11-04T08:03:41.274Z,76.21
2022-11-04T08:06:11.602Z,79.86
2022-11-04T08:08:39.316Z,75.21
2022-11-04T08:11:18.136Z,79.40
2022-11-04T08:13:47.098Z,79.67
2022-11-04T08:16:20.462Z,79.72
2022-11-04T08:18:49.410Z,79.94
2022-11-04T08:21:17.633Z,77.61
2022-11-04T08:23:46.297Z,78.40
2022-11-04T08:26:17.955Z,78.07
2022-11-04T08:28:45.897Z,78.99
2022-11-04T08:31:24.319Z,77.47
2022-11-04T08:33:53.278Z,78.16
2022-11-04T08:36:31.097Z,80.68
2022-11-04T08:38:58.850Z,82.00
2022-11-04T08:41:30.945Z,82.73
2022-11-04T08:44:01.030Z,80.82
2022-11-04T08:46:32.220Z,80.67
2022-11-04T08:48:59.524Z,80.85
2022-11-04T08:51:28.379Z,80.98
2022-11-04T08:53:56.481Z,79.72
2022-11-04T08:56:31.191Z,81.36
2022-11-04T08:58:59.923Z,81.42
2022-11-04T09:01:32.795Z,80.32
2022-11-04T09:04:03.426Z,79.06
2022-11-04T09:06:37.997Z,77.76
2022-11-04T09:09:08.283Z,79.45
2022-11-04T09:11:41.116Z,82.97
2022-11-04T09:14:09.091Z,80.57
2022-11-04T09:16:38.401Z,79.95
2022-11-04T09:19:06.038Z,81.96
2022-11-04T09:21:33.543Z,79.92
2022-11-04T09:24:00.827Z,76.59
2022-11-04T09:26:28.548Z,77.25
2022-11-04T09:28:58.857Z,80.22
2022-11-04T09:31:29.406Z,82.40
2022-11-04T09:33:56.923Z,79.88
2022-11-04T09:36:24.553Z,77.15
2022-11-04T09:38:52.752Z,82.42
2022-11-04T09:41:55.789Z,77.83
2022-11-04T09:45:22.945Z,77.56
2022-11-04T09:47:53.157Z,78.69
2022-11-04T09:50:31.563Z,80.51
2022-11-04T09:53:19.699Z,80.40
2022-11-04T09:56:04.078Z,81.26
2022-11-04T09:58:38.105Z,79.84
2022-11-04T10:01:30.628Z,80.18
2022-11-04T10:04:01.510Z,78.33
2022-11-04T10:06:57.992Z,78.44
2022-11-04T10:09:40.007Z,76.53
2022-11-04T10:12:34.421Z,78.77
2022-11-04T10:15:26.732Z,77.11
2022-11-04T10:18:16.158Z,76.99
2022-11-04T10:21:18.849Z,73.81
2022-11-04T10:24:15.174Z,76.75
2022-11-04T10:27:01.219Z,77.39
2022-11-04T10:29:43.094Z,74.51
2022-11-04T10:32:25.877Z,77.02
2022-11-04T10:35:18.735Z,76.54
2022-11-04T10:37:51.448Z,76.53
2022-11-04T10:40:36.650Z,77.59
2022-11-04T10:43:11.164Z,74.13
2022-11-04T10:45:55.903Z,77.13
2022-11-04T10:48:37.053Z,77.80
2022-11-04T10:51:05.672Z,77.21
2022-11-04T10:53:34.034Z,76.02
2022-11-04T10:56:25.401Z,75.09
2022-11-04T10:58:55.277Z,75.47
2022-11-04T11:01:34.107Z,76.41
2022-11-04T11:04:06.201Z,76.50
2022-11-04T11:06:36.853Z,74.20
2022-11-04T11:09:29.681Z,75.44
2022-11-04T11:12:44.695Z,75.71
2022-11-04T11:15:23.871Z,78.01
2022-11-04T11:17:59.827Z,79.16
2022-11-04T11:20:27.350Z,75.05
2022-11-04T11:22:58.199Z,75.33
2022-11-04T11:25:31.082Z,79.95
2022-11-04T11:28:11.670Z,78.04
2022-11-04T11:30:45.970Z,77.75
2022-11-04T11:33:35.672Z,80.21
2022-11-04T11:36:15.316Z,78.70
2022-11-04T11:38:53.898Z,80.51
2022-11-04T11:41:25.565Z,79.56
2022-11-04T11:43:56.004Z,81.23
2022-11-04T11:46:31.435Z,79.60
2022-11-04T11:49:02.915Z,78.25
2022-11-04T11:51:33.743Z,79.45
2022-11-04T11:54:25.458Z,81.45
2022-11-04T11:57:19.637Z,79.90
2022-11-04T12:02:55.374Z,79.20
2022-11-04T12:11:44.909Z,80.72
2022-11-04T12:14:18.490Z,82.76
2022-11-04T12:17:19.267Z,83.13
2022-11-04T12:20:08.807Z,80.96
2022-11-04T12:23:32.003Z,79.77
2022-11-04T12:26:51.281Z,81.38
2022-11-04T12:29:27.462Z,83.44
2022-11-04T12:32:10.320Z,87.14
2022-11-04T12:35:10.204Z,87.18
2022-11-04T12:37:59.311Z,84.61
2022-11-04T12:40:59.387Z,87.40
2022-11-04T12:43:57.499Z,85.03
2022-11-04T12:47:09.478Z,87.23
2022-11-04T12:50:00.812Z,84.79
2022-11-04T12:52:50.810Z,85.26
2022-11-04T12:55:43.883Z,85.43
2022-11-04T12:58:29.025Z,86.43
2022-11-04T13:01:10.961Z,84.78
2022-11-04T13:04:06.715Z,84.98
2022-11-04T13:07:00.745Z,85.54
2022-11-04T13:09:50.946Z,84.56
2022-11-04T13:12:45.721Z,82.48
2022-11-04T13:15:17.996Z,82.58
2022-11-04T13:17:49.381Z,88.12
2022-11-04T13:20:44.956Z,84.90
2022-11-04T13:23:25.035Z,83.65
2022-11-04T13:25:53.817Z,88.94
2022-11-04T13:28:23.044Z,88.70
2022-11-04T13:31:31.689Z,85.79
2022-11-04T13:34:33.585Z,88.77
2022-11-04T13:37:12.947Z,92.61
2022-11-04T13:39:48.977Z,91.74
2022-11-04T13:43:22.273Z,96.35
2022-11-04T13:45:54.013Z,98.23
2022-11-04T13:48:26.792Z,92.34
2022-11-04T13:51:10.425Z,93.89
2022-11-04T13:53:49.071Z,97.48
2022-11-04T13:56:39.633Z,100.00
2022-11-04T13:59:26.865Z,100.00
2022-11-04T14:02:12.532Z,100.00
2022-11-04T14:04:45.509Z,100.00
2022-11-04T14:07:17.914Z,99.12
2022-11-04T14:09:45.044Z,100.00
2022-11-04T14:12:16.957Z,98.98
2022-11-04T14:14:53.606Z,99.40
2022-11-04T14:17:36.013Z,97.93
2022-11-04T14:20:08.465Z,95.76
2022-11-04T14:22:44.446Z,98.13
2022-11-04T14:25:40.543Z,99.34
2022-11-04T14:28:10.774Z,98.91
2022-11-04T14:31:05.079Z,99.04
2022-11-04T14:33:37.948Z,99.96
2022-11-04T14:36:23.856Z,99.27
2022-11-04T14:39:11.874Z,97.54
2022-11-04T14:42:00.055Z,99.29
2022-11-04T14:44:41.732Z,97.32
2022-11-04T14:47:30.998Z,98.26
2022-11-04T14:50:07.777Z,99.20
2022-11-04T14:52:48.372Z,100.00
2022-11-04T14:55:29.746Z,100.00
2022-11-04T14:58:18.625Z,100.00
2022-11-04T15:00:48.904Z,100.00
2022-11-04T15:06:53.542Z,100.00
2022-11-04T15:09:30.769Z,100.00
2022-11-04T15:12:28.708Z,100.00
2022-11-04T15:14:57.517Z,100.00
2022-11-04T15:17:30.187Z,100.00
2022-11-04T15:20:01.581Z,100.00
2022-11-04T15:22:30.547Z,100.00
2022-11-04T15:25:04.308Z,100.00
2022-11-04T15:27:33.661Z,100.00
2022-11-04T15:30:04.146Z,100.00
2022-11-04T15:32:32.206Z,100.00
2022-11-04T15:34:59.923Z,100.00
2022-11-04T15:37:30.934Z,100.00
2022-11-04T15:39:59.166Z,100.00
2022-11-04T15:42:37.093Z,100.00
2022-11-04T15:45:39.209Z,100.00
2022-11-04T15:48:25.060Z,100.00
2022-11-04T15:51:22.257Z,100.00
2022-11-04T15:54:30.719Z,100.00
2022-11-04T15:57:03.014Z,100.00
2022-11-04T15:59:34.626Z,100.00
2022-11-04T16:02:05.800Z,100.00
2022-11-04T16:04:34.010Z,100.00
2022-11-04T16:07:21.982Z,100.00
2022-11-04T16:09:54.254Z,100.00
2022-11-04T16:12:27.027Z,100.00
2022-11-04T16:14:57.572Z,100.00
2022-11-04T16:17:25.737Z,100.00
2022-11-04T16:20:02.038Z,100.00
2022-11-04T16:22:40.701Z,100.00
2022-11-04T16:25:19.887Z,100.00
2022-11-04T16:27:47.436Z,100.00
2022-11-04T16:30:22.990Z,100.00
2022-11-04T16:32:55.255Z,100.00
2022-11-04T16:35:28.268Z,100.00
2022-11-04T16:37:56.709Z,100.00
2022-11-04T16:40:25.238Z,100.00
2022-11-04T16:42:53.927Z,100.00
2022-11-04T16:45:30.282Z,100.00
2022-11-04T16:47:58.908Z,100.00
2022-11-04T16:50:27.303Z,100.00
2022-11-04T16:52:54.938Z,100.00
2022-11-04T16:55:23.657Z,100.00
2022-11-04T16:58:00.902Z,100.00
2022-11-04T17:00:32.996Z,100.00
2022-11-04T17:03:21.714Z,100.00
2022-11-04T17:05:56.548Z,100.00
2022-11-04T17:08:27.894Z,100.00
2022-11-04T17:10:55.145Z,100.00
2022-11-04T17:13:22.539Z,100.00
2022-11-04T17:15:49.902Z,100.00
2022-11-04T17:18:18.908Z,100.00
2022-11-04T17:20:50.011Z,100.00
2022-11-04T17:23:18.715Z,100.00
2022-11-04T17:25:47.900Z,100.00
2022-11-04T17:28:15.526Z,100.00
2022-11-04T17:30:44.225Z,100.00
2022-11-04T17:33:19.176Z,100.00
2022-11-04T17:35:49.580Z,100.00
2022-11-04T17:38:18.446Z,100.00
2022-11-04T17:41:04.788Z,100.00
2022-11-04T17:43:52.421Z,100.00
2022-11-04T17:46:35.203Z,100.00
2022-11-04T17:49:11.610Z,100.00
2022-11-04T17:51:41.456Z,100.00
2022-11-04T17:54:09.640Z,100.00
2022-11-04T17:56:38.535Z,100.00
2022-11-04T17:59:06.420Z,100.00
2022-11-04T18:01:35.621Z,100.00
2022-11-04T18:04:03.669Z,100.00
2022-11-04T18:06:33.676Z,100.00
2022-11-04T18:09:01.834Z,100.00
2022-11-04T18:11:48.897Z,100.00
2022-11-04T18:14:17.824Z,100.00
2022-11-04T18:16:48.302Z,100.00
2022-11-04T18:19:18.397Z,100.00
2022-11-04T18:21:46.422Z,100.00
2022-11-04T18:24:14.895Z,100.00
2022-11-04T18:26:42.946Z,100.00
2022-11-04T18:29:10.365Z,100.00
2022-11-04T18:31:44.632Z,100.00
2022-11-04T18:34:19.515Z,100.00
2022-11-04T18:36:49.002Z,100.00
2022-11-04T18:39:18.877Z,100.00
2022-11-04T18:41:46.952Z,100.00
2022-11-04T18:44:21.253Z,100.00
2022-11-04T18:46:49.933Z,100.00
2022-11-04T18:49:18.335Z,100.00
2022-11-04T18:51:45.751Z,100.00
2022-11-04T18:54:14.865Z,100.00
2022-11-04T18:56:42.871Z,100.00
2022-11-04T18:59:15.551Z,100.00
2022-11-04T19:01:43.955Z,100.00
2022-11-04T19:04:13.176Z,100.00
2022-11-04T19:06:43.226Z,100.00
2022-11-04T19:09:44.829Z,100.00
2022-11-04T19:12:19.604Z,100.00
2022-11-04T19:14:46.835Z,100.00
2022-11-04T19:17:14.161Z,100.00
2022-11-04T19:19:41.740Z,100.00
2022-11-04T19:22:09.624Z,100.00
2022-11-04T19:24:37.036Z,100.00
2022-11-04T19:27:04.610Z,100.00
2022-11-04T19:29:33.112Z,100.00
2022-11-04T19:32:00.870Z,100.00
2022-11-04T19:34:28.472Z,100.00
2022-11-04T19:36:55.862Z,100.00
2022-11-04T19:39:23.332Z,100.00
2022-11-04T19:42:09.475Z,100.00
2022-11-04T19:44:36.875Z,100.00
2022-11-04T19:47:04.207Z,100.00
2022-11-04T19:49:31.694Z,100.00
2022-11-04T19:52:00.075Z,100.00
2022-11-04T19:54:28.514Z,100.00
2022-11-04T19:56:55.994Z,100.00
2022-11-04T19:59:23.199Z,100.00
2022-11-04T20:01:50.817Z,100.00
2022-11-04T20:04:18.530Z,100.00
2022-11-04T20:06:45.841Z,100.00
2022-11-04T20:09:13.534Z,100.00
2022-11-04T20:12:00.397Z,100.00
2022-11-04T20:14:28.939Z,100.00
2022-11-04T20:16:56.650Z,100.00
2022-11-04T20:19:23.977Z,100.00
2022-11-04T20:21:51.388Z,100.00
2022-11-04T20:24:19.210Z,100.00
2022-11-04T20:26:47.642Z,100.00
2022-11-04T20:29:17.938Z,100.00
2022-11-04T20:31:45.652Z,100.00
2022-11-04T20:34:15.052Z,100.00
2022-11-04T20:36:42.806Z,100.00
2022-11-04T20:39:17.573Z,100.00
2022-11-04T20:41:46.310Z,100.00
2022-11-04T20:44:15.809Z,100.00
2022-11-04T20:46:44.405Z,100.00
2022-11-04T20:49:12.383Z,100.00
2022-11-04T20:51:48.770Z,100.00
2022-11-04T20:54:18.129Z,100.00
2022-11-04T20:56:45.715Z,100.00
2022-11-04T20:59:14.157Z,100.00
2022-11-04T21:01:45.152Z,100.00
2022-11-04T21:04:18.275Z,100.00
2022-11-04T21:06:49.662Z,100.00
2022-11-04T21:09:20.093Z,100.00
2022-11-04T21:11:48.141Z,100.00
2022-11-04T21:14:19.433Z,100.00
2022-11-04T21:16:47.610Z,100.00
2022-11-04T21:19:16.290Z,100.00
2022-11-04T21:21:44.899Z,100.00
2022-11-04T21:24:14.897Z,100.00
2022-11-04T21:26:42.751Z,100.00
2022-11-04T21:29:14.889Z,100.00
2022-11-04T21:31:43.082Z,100.00
2022-11-04T21:34:10.875Z,100.00
2022-11-04T21:36:38.471Z,100.00
2022-11-04T21:39:06.589Z,100.00
2022-11-04T21:41:37.129Z,100.00
2022-11-04T21:44:08.685Z,100.00
2022-11-04T21:46:36.715Z,100.00
2022-11-04T21:49:04.574Z,100.00
2022-11-04T21:51:34.565Z,100.00
2022-11-04T21:54:06.846Z,100.00
2022-11-04T21:56:35.045Z,100.00
2022-11-04T21:59:03.398Z,100.00
2022-11-04T22:01:32.632Z,100.00
2022-11-04T22:04:02.262Z,100.00
2022-11-04T22:06:34.525Z,100.00
2022-11-04T22:09:05.432Z,100.00
2022-11-04T22:11:37.327Z,100.00
2022-11-04T22:14:08.237Z,100.00
2022-11-04T22:16:39.040Z,100.00
2022-11-04T22:19:10.418Z,100.00
2022-11-04T22:21:41.244Z,100.00
2022-11-04T22:24:17.902Z,100.00
2022-11-04T22:26:46.170Z,100.00
2022-11-04T22:29:13.442Z,100.00
2022-11-04T22:31:43.174Z,100.00
2022-11-04T22:34:10.562Z,100.00
2022-11-04T22:36:38.356Z,100.00
2022-11-04T22:39:05.783Z,100.00
2022-11-04T22:41:35.661Z,100.00
2022-11-04T22:44:03.625Z,100.00
2022-11-04T22:46:33.797Z,100.00
2022-11-04T22:49:01.440Z,100.00
2022-11-04T22:51:31.331Z,100.00
2022-11-04T22:54:04.571Z,100.00
2022-11-04T22:56:34.173Z,100.00
2022-11-04T22:59:01.527Z,100.00
2022-11-04T23:01:29.371Z,100.00
2022-11-04T23:03:57.735Z,100.00
2022-11-04T23:06:25.144Z,100.00
2022-11-04T23:08:59.534Z,100.00
2022-11-04T23:11:47.354Z,100.00
2022-11-04T23:14:36.216Z,100.00
2022-11-04T23:17:37.815Z,100.00
2022-11-04T23:20:09.451Z,100.00
2022-11-04T23:22:55.393Z,100.00
2022-11-04T23:25:23.214Z,100.00
2022-11-04T23:28:12.868Z,100.00
2022-11-04T23:30:46.515Z,100.00
2022-11-04T23:33:15.739Z,100.00
2022-11-04T23:36:07.674Z,100.00
2022-11-04T23:38:38.415Z,100.00
2022-11-04T23:41:25.637Z,100.00
2022-11-04T23:43:53.005Z,100.00
2022-11-04T23:46:43.113Z,100.00
2022-11-04T23:49:30.791Z,100.00
2022-11-04T23:52:16.595Z,100.00
2022-11-04T23:55:02.521Z,100.00
2022-11-04T23:57:48.647Z,100.00
